Time;durP1;ratioP1;P1;durP2;ratioP2;P2;SDS_P1;SDS_P2;PMS_P1;PMS_P2;Temp;Humidity;BMP_temperature;BMP_pressure;BME280_temperature;BME280_humidity;BME280_pressure;Samples;Min_cycle;Max_cycle;Signal;HPM_P1;HPM_P2
2021/11/04 00:01:58;;;;;;;;;1.00;1.00;;;;;7.70;69.15;100286.41;5089835;28;45338;-79
2021/11/04 00:04:25;;;;;;;;;0.00;0.00;;;;;7.43;69.00;100238.56;5083078;28;45566;-79
2021/11/04 00:06:53;;;;;;;;;0.00;0.00;;;;;7.72;69.29;100282.97;5067042;28;45533;-83
2021/11/04 00:09:18;;;;;;;;;0.00;0.00;;;;;7.74;68.80;100280.41;5090308;28;45229;-82
2021/11/04 00:11:43;;;;;;;;;0.75;0.75;;;;;7.57;69.18;100251.72;5088536;28;45238;-83
2021/11/04 00:14:09;;;;;;;;;1.00;1.00;;;;;7.66;68.66;100272.53;5088944;28;45404;-83
2021/11/04 00:16:34;;;;;;;;;1.00;1.00;;;;;7.64;69.09;100260.41;5084570;28;47445;-82
2021/11/04 00:18:59;;;;;;;;;2.00;1.50;;;;;7.63;68.87;100269.06;5070073;28;45290;-82
2021/11/04 00:21:25;;;;;;;;;3.00;0.00;;;;;7.63;69.56;100271.63;5092152;28;44657;-83
2021/11/04 00:23:51;;;;;;;;;1.00;1.00;;;;;7.53;69.31;100253.38;5091259;28;45377;-82
2021/11/04 00:26:16;;;;;;;;;2.00;1.50;;;;;7.56;69.41;100263.78;5091729;28;46957;-82
2021/11/04 00:28:42;;;;;;;;;2.00;0.00;;;;;7.62;69.15;100273.34;5093225;28;45362;-82
2021/11/04 00:31:09;;;;;;;;;2.50;1.50;;;;;7.48;69.52;100257.63;5075086;28;45323;-83
2021/11/04 00:33:37;;;;;;;;;2.00;2.00;;;;;7.28;69.16;100234.03;5092063;28;45525;-83
2021/11/04 00:36:03;;;;;;;;;1.00;0.00;;;;;7.41;69.63;100248.03;5071583;28;47001;-82
2021/11/04 00:38:28;;;;;;;;;1.25;1.00;;;;;7.56;69.80;100281.91;5090792;28;45250;-82
2021/11/04 00:40:55;;;;;;;;;1.75;1.00;;;;;7.56;69.82;100271.56;5091742;28;45441;-82
2021/11/04 00:43:21;;;;;;;;;1.00;1.00;;;;;7.52;69.51;100267.19;5091968;28;45484;-82
2021/11/04 00:45:47;;;;;;;;;2.25;1.25;;;;;7.67;69.93;100278.59;5091333;28;45312;-82
2021/11/04 00:48:12;;;;;;;;;1.00;1.00;;;;;7.48;69.49;100250.72;5091910;28;45397;-82
2021/11/04 00:50:37;;;;;;;;;2.00;2.00;;;;;7.55;69.69;100256.00;5077303;28;45285;-82
2021/11/04 00:53:03;;;;;;;;;1.50;0.50;;;;;7.73;69.50;100283.88;5080805;28;45248;-82
2021/11/04 00:55:28;;;;;;;;;3.75;1.00;;;;;7.66;69.12;100261.31;5097812;28;44905;-83
2021/11/04 00:57:54;;;;;;;;;1.50;1.50;;;;;7.67;69.70;100276.88;5096991;28;45341;-82
2021/11/04 01:00:19;;;;;;;;;2.00;0.75;;;;;7.66;69.50;100284.63;5091864;28;45344;-84
2021/11/04 01:02:45;;;;;;;;;1.50;1.50;;;;;7.74;69.01;100293.38;5092205;28;45287;-83
2021/11/04 01:05:11;;;;;;;;;0.00;0.00;;;;;7.63;69.46;100274.22;5092331;28;45371;-82
2021/11/04 01:07:37;;;;;;;;;4.00;1.00;;;;;7.57;69.54;100265.50;5091269;28;45215;-82
2021/11/04 01:10:04;;;;;;;;;0.50;0.00;;;;;7.81;69.50;100302.13;5091190;28;45314;-82
2021/11/04 01:12:30;;;;;;;;;0.00;0.00;;;;;7.72;69.53;100269.19;5074203;28;45355;-83
2021/11/04 01:14:55;;;;;;;;;0.00;0.00;;;;;7.68;69.44;100264.78;5091755;28;45349;-82
2021/11/04 01:17:21;;;;;;;;;0.25;0.25;;;;;7.83;69.40;100285.72;5091458;28;45338;-82
2021/11/04 01:19:46;;;;;;;;;0.25;0.25;;;;;7.79;69.19;100283.94;5089300;28;44752;-82
2021/11/04 01:22:12;;;;;;;;;1.00;0.00;;;;;7.80;69.71;100289.97;5093010;28;45329;-82
2021/11/04 01:24:38;;;;;;;;;1.50;0.00;;;;;7.72;69.35;100285.56;5095502;28;45408;-81
2021/11/04 01:27:03;;;;;;;;;2.25;1.00;;;;;7.57;69.34;100265.50;5091432;28;45407;-82
2021/11/04 01:29:29;;;;;;;;;0.00;0.00;;;;;7.64;69.78;100286.31;5091154;28;45503;-82
2021/11/04 01:31:54;;;;;;;;;0.00;0.00;;;;;7.60;69.60;100280.25;5090141;28;45310;-82
2021/11/04 01:34:20;;;;;;;;;0.00;0.00;;;;;7.59;69.67;100283.66;5091299;28;45299;-82
2021/11/04 01:36:45;;;;;;;;;0.00;0.00;;;;;7.55;70.10;100282.78;5091051;28;45227;-81
2021/11/04 01:39:11;;;;;;;;;3.00;0.00;;;;;7.39;70.04;100262.69;5091507;28;45276;-82
2021/11/04 01:41:36;;;;;;;;;1.00;1.00;;;;;7.50;69.93;100293.91;5073488;28;44766;-83
2021/11/04 01:44:02;;;;;;;;;0.00;0.00;;;;;7.50;70.19;100288.75;5090877;28;45255;-83
2021/11/04 01:46:28;;;;;;;;;2.00;0.00;;;;;7.37;69.93;100261.78;5091886;28;45247;-82
2021/11/04 01:48:53;;;;;;;;;1.00;1.00;;;;;7.33;70.48;100266.94;5092334;28;45247;-81
2021/11/04 01:51:20;;;;;;;;;0.75;0.00;;;;;7.45;69.98;100283.50;5090301;28;45502;-82
2021/11/04 01:53:46;;;;;;;;;0.00;0.00;;;;;7.48;70.01;100286.13;5071155;28;47148;-81
2021/11/04 01:56:12;;;;;;;;;0.00;0.00;;;;;7.43;70.41;100280.00;5086646;28;45334;-80
2021/11/04 01:58:37;;;;;;;;;3.50;1.00;;;;;7.26;70.74;100252.13;5068279;28;45321;-82
2021/11/04 02:01:03;;;;;;;;;1.00;1.00;;;;;7.52;70.17;100287.03;5086744;28;45280;-81
2021/11/04 02:03:36;;;;;;;;;1.50;0.00;;;;;7.53;69.87;100296.56;5068467;28;47074;-81
2021/11/04 02:06:23;;;;;;;;;0.00;0.00;;;;;7.45;69.79;100305.06;5085612;28;45412;-81
2021/11/04 02:09:03;;;;;;;;;0.00;0.00;;;;;7.40;70.34;100306.72;5086572;28;45250;-81
2021/11/04 02:11:53;;;;;;;;;0.75;0.75;;;;;7.27;70.65;100287.56;5087121;28;45284;-81
2021/11/04 02:14:24;;;;;;;;;0.00;0.00;;;;;7.37;70.61;100301.50;5079713;28;45713;-81
2021/11/04 02:16:53;;;;;;;;;0.75;0.75;;;;;7.38;70.66;100297.22;5086155;28;45169;-81
2021/11/04 02:19:41;;;;;;;;;1.25;0.00;;;;;7.39;70.83;100286.88;5085087;28;45434;-82
2021/11/04 02:22:13;;;;;;;;;1.25;1.00;;;;;7.27;70.47;100273.72;5087152;28;45337;-82
2021/11/04 02:24:47;;;;;;;;;2.00;1.00;;;;;7.41;70.44;100303.28;5086312;28;45418;-82
2021/11/04 02:27:14;;;;;;;;;1.00;1.00;;;;;7.28;70.41;100286.69;5068225;28;45346;-82
2021/11/04 02:29:41;;;;;;;;;2.00;0.25;;;;;7.30;70.31;100294.50;5067433;28;45367;-82
2021/11/04 02:32:09;;;;;;;;;1.50;1.00;;;;;7.37;70.65;100309.28;5087342;28;44791;-82
2021/11/04 02:34:37;;;;;;;;;1.00;1.00;;;;;7.21;70.77;100290.06;5087415;28;45287;-82
2021/11/04 02:37:03;;;;;;;;;0.00;0.00;;;;;7.17;70.78;100280.50;5087823;28;45398;-82
2021/11/04 02:39:30;;;;;;;;;0.75;0.75;;;;;7.27;70.91;100297.91;5067467;28;45370;-82
2021/11/04 02:41:56;;;;;;;;;0.50;0.50;;;;;7.19;71.04;100283.97;5088058;28;45244;-81
2021/11/04 02:44:22;;;;;;;;;0.50;0.50;;;;;7.30;70.57;100305.72;5091031;28;45318;-81
2021/11/04 02:46:48;;;;;;;;;3.00;1.00;;;;;7.15;70.33;100287.34;5091173;28;45299;-82
2021/11/04 02:49:14;;;;;;;;;1.00;0.00;;;;;7.13;70.54;100282.16;5092075;28;45226;-83
2021/11/04 02:51:40;;;;;;;;;2.00;1.00;;;;;7.21;70.92;100305.59;5090853;28;45362;-82
2021/11/04 02:54:09;;;;;;;;;0.25;0.25;;;;;7.09;70.96;100294.19;5091197;28;46233;-82
2021/11/04 02:56:52;;;;;;;;;0.00;0.00;;;;;7.20;70.43;100314.22;5090637;28;45292;-81
2021/11/04 02:59:20;;;;;;;;;0.00;0.00;;;;;6.99;71.17;100287.13;5091041;28;45357;-82
2021/11/04 03:01:51;;;;;;;;;1.00;1.00;;;;;7.19;71.22;100315.03;5091121;28;45282;-81
2021/11/04 03:04:18;;;;;;;;;2.50;1.50;;;;;7.20;71.31;100315.06;5070538;28;45374;-82
2021/11/04 03:06:44;;;;;;;;;1.25;1.25;;;;;7.21;70.70;100321.13;5062709;28;44743;-81
2021/11/04 03:09:10;;;;;;;;;1.25;1.00;;;;;7.14;70.60;100314.94;5079167;28;45318;-81
2021/11/04 03:11:35;;;;;;;;;2.00;0.00;;;;;7.20;71.10;100314.22;5073345;28;45505;-81
2021/11/04 03:14:01;;;;;;;;;3.50;1.00;;;;;7.29;70.59;100329.84;5083568;28;46730;-82
2021/11/04 03:16:30;;;;;;;;;0.50;0.00;;;;;7.35;70.95;100327.38;5091856;28;45453;-81
2021/11/04 03:18:57;;;;;;;;;1.75;1.00;;;;;7.34;71.11;100323.06;5091670;28;45303;-80
2021/11/04 03:21:24;;;;;;;;;3.00;1.50;;;;;7.29;70.30;100313.47;5090728;28;45457;-81
2021/11/04 03:23:49;;;;;;;;;0.50;0.50;;;;;7.32;70.31;100322.16;5091493;28;45366;-81
2021/11/04 03:26:16;;;;;;;;;1.00;1.00;;;;;7.25;70.98;100315.13;5091764;28;45340;-81
2021/11/04 03:28:43;;;;;;;;;2.50;0.75;;;;;7.13;70.64;100300.28;5072261;28;44882;-81
2021/11/04 03:31:10;;;;;;;;;0.00;0.00;;;;;7.25;70.58;100317.72;5096800;28;45309;-80
2021/11/04 03:33:36;;;;;;;;;1.00;0.00;;;;;7.27;70.63;100323.81;5093431;28;45022;-81
2021/11/04 03:36:03;;;;;;;;;0.00;0.00;;;;;7.18;70.84;100310.72;5091372;27;45757;-81
2021/11/04 03:38:30;;;;;;;;;0.50;0.50;;;;;7.26;71.20;100332.41;5093133;28;45246;-81
2021/11/04 03:40:58;;;;;;;;;2.00;1.00;;;;;7.29;70.69;100335.03;5091445;28;45575;-81
2021/11/04 03:43:25;;;;;;;;;0.00;0.00;;;;;7.20;71.02;100314.22;5092540;28;45204;-82
2021/11/04 03:45:51;;;;;;;;;1.00;1.00;;;;;7.16;70.59;100318.44;5092229;28;45296;-81
2021/11/04 03:48:17;;;;;;;;;0.00;0.00;;;;;7.16;70.86;100312.38;5072367;28;45342;-81
2021/11/04 03:50:42;;;;;;;;;1.00;1.00;;;;;7.21;70.41;100319.41;5065336;28;45341;-78
2021/11/04 03:53:08;;;;;;;;;0.00;0.00;;;;;7.39;70.56;100340.38;5066968;28;45612;-81
2021/11/04 03:55:34;;;;;;;;;1.00;1.00;;;;;7.33;71.00;100323.03;5084963;28;45266;-81
2021/11/04 03:58:01;;;;;;;;;2.00;1.75;;;;;7.35;70.73;100336.84;5085581;28;45322;-81
2021/11/04 04:00:26;;;;;;;;;0.75;0.75;;;;;7.51;70.59;100353.53;5076166;28;45524;-81
2021/11/04 04:02:52;;;;;;;;;0.00;0.00;;;;;7.28;70.46;100315.19;5071882;27;46913;-81
2021/11/04 04:05:32;;;;;;;;;1.00;1.00;;;;;7.56;70.20;100358.75;5075821;28;45232;-80
2021/11/04 04:07:57;;;;;;;;;1.25;0.50;;;;;7.59;70.65;100364.84;5073505;28;45429;-81
2021/11/04 04:10:24;;;;;;;;;1.75;0.75;;;;;7.49;70.18;100344.84;5084888;28;45290;-80
2021/11/04 04:12:50;;;;;;;;;0.00;0.00;;;;;7.42;70.08;100330.06;5083694;28;46142;-81
2021/11/04 04:15:15;;;;;;;;;1.25;1.25;;;;;7.35;70.62;100321.31;5062643;28;45394;-81
2021/11/04 04:17:40;;;;;;;;;1.00;1.00;;;;;7.44;71.09;100352.53;5080175;28;45169;-81
2021/11/04 04:20:07;;;;;;;;;1.25;1.00;;;;;7.56;71.46;100361.34;5076036;28;45339;-81
2021/11/04 04:22:34;;;;;;;;;1.00;0.75;;;;;7.18;71.52;100297.75;5064382;28;46509;-81
2021/11/04 04:24:59;;;;;;;;;0.00;0.00;;;;;7.46;71.04;100335.31;5081198;28;45472;-81
2021/11/04 04:27:25;;;;;;;;;0.75;0.75;;;;;7.54;71.21;100350.09;5057881;28;45392;-81
2021/11/04 04:29:50;;;;;;;;;2.00;1.00;;;;;7.48;70.94;100349.16;5084159;28;45276;-81
2021/11/04 04:32:16;;;;;;;;;0.00;0.00;;;;;7.64;70.96;100371.81;5083970;28;45274;-81
2021/11/04 04:34:44;;;;;;;;;0.75;0.75;;;;;7.52;70.91;100355.25;5083841;28;45283;-80
2021/11/04 04:37:10;;;;;;;;;2.00;2.00;;;;;7.42;71.11;100356.84;5083870;28;45359;-81
2021/11/04 04:39:37;;;;;;;;;0.00;0.00;;;;;7.50;71.52;100389.75;5083873;28;45299;-81
2021/11/04 04:42:03;;;;;;;;;1.00;1.00;;;;;7.43;72.09;100379.28;5083468;28;45268;-80
2021/11/04 04:44:29;;;;;;;;;1.00;1.00;;;;;7.10;71.75;100332.16;5045419;28;45258;-81
2021/11/04 04:46:55;;;;;;;;;0.00;0.00;;;;;7.09;72.73;100334.72;5060745;28;45416;-81
2021/11/04 04:49:21;;;;;;;;;0.75;0.50;;;;;7.23;73.23;100346.19;5074442;28;45562;-81
2021/11/04 04:51:46;;;;;;;;;1.00;1.00;;;;;7.43;72.09;100378.41;5083323;28;46717;-81
2021/11/04 04:54:12;;;;;;;;;1.50;1.50;;;;;7.15;72.76;100340.00;5084243;28;45388;-81
2021/11/04 04:56:38;;;;;;;;;0.00;0.00;;;;;7.29;72.97;100358.34;5079448;28;44736;-81
2021/11/04 04:59:03;;;;;;;;;1.00;1.00;;;;;7.34;72.97;100373.97;5076777;28;45510;-81
2021/11/04 05:01:29;;;;;;;;;1.00;1.00;;;;;7.46;73.23;100394.00;5062888;28;46219;-81
2021/11/04 05:03:55;;;;;;;;;1.00;1.00;;;;;7.35;72.78;100371.41;5072164;28;45780;-80
2021/11/04 05:06:20;;;;;;;;;3.00;3.00;;;;;7.36;72.84;100364.50;5074076;28;45352;-78
2021/11/04 05:08:46;;;;;;;;;1.75;1.75;;;;;7.26;73.13;100345.34;5076691;28;45240;-82
2021/11/04 05:11:12;;;;;;;;;3.75;1.00;;;;;7.40;73.36;100375.78;5083543;28;45372;-81
2021/11/04 05:13:37;;;;;;;;;2.75;1.25;;;;;7.45;73.26;100390.53;5077185;28;45489;-80
2021/11/04 05:16:03;;;;;;;;;1.00;1.00;;;;;7.40;73.76;100379.25;5087928;28;45163;-81
2021/11/04 05:18:28;;;;;;;;;1.50;0.50;;;;;7.26;73.99;100366.06;5092347;28;45231;-81
2021/11/04 05:20:54;;;;;;;;;1.50;1.50;;;;;7.21;73.43;100350.47;5095984;28;45386;-80
2021/11/04 05:23:19;;;;;;;;;0.75;0.75;;;;;7.33;73.58;100375.69;5090726;28;44815;-81
2021/11/04 05:25:45;;;;;;;;;1.25;1.00;;;;;7.39;73.93;100389.56;5095432;28;45198;-81
2021/11/04 05:28:10;;;;;;;;;1.00;1.00;;;;;7.24;73.81;100375.53;5072588;28;45328;-80
2021/11/04 05:30:35;;;;;;;;;1.00;1.00;;;;;7.35;74.29;100402.47;5080576;28;45763;-81
2021/11/04 05:33:01;;;;;;;;;0.00;0.00;;;;;7.14;74.11;100358.09;5071035;28;45787;-80
2021/11/04 05:35:29;;;;;;;;;1.25;1.25;;;;;7.40;73.77;100399.97;5086261;28;45333;-86
2021/11/04 05:37:54;;;;;;;;;1.00;1.00;;;;;7.31;74.46;100382.56;5084766;28;45456;-85
2021/11/04 05:40:20;;;;;;;;;1.00;1.00;;;;;7.27;74.72;100370.41;5084173;28;47134;-81
2021/11/04 05:42:46;;;;;;;;;1.25;0.50;;;;;7.36;75.13;100382.63;5082345;28;45403;-79
2021/11/04 05:45:12;;;;;;;;;0.00;0.00;;;;;7.50;74.54;100407.91;5063799;28;45331;-78
2021/11/04 05:47:37;;;;;;;;;4.50;1.75;;;;;7.52;74.39;100411.34;5080991;28;45455;-80
2021/11/04 05:50:03;;;;;;;;;2.00;0.75;;;;;7.35;74.66;100383.47;5082061;28;45378;-80
2021/11/04 05:52:29;;;;;;;;;1.50;1.50;;;;;7.32;74.55;100392.06;5081451;28;45306;-78
2021/11/04 05:54:57;;;;;;;;;1.00;1.00;;;;;7.23;75.09;100371.22;5061824;28;45287;-78
2021/11/04 05:57:23;;;;;;;;;1.50;0.50;;;;;7.31;74.79;100376.50;5062880;28;45488;-78
2021/11/04 05:59:49;;;;;;;;;1.00;1.00;;;;;7.53;74.53;100413.13;5080684;28;46112;-80
2021/11/04 06:02:14;;;;;;;;;0.25;0.25;;;;;7.46;74.83;100414.72;5069801;28;45537;-78
2021/11/04 06:04:44;;;;;;;;;3.00;1.50;;;;;7.47;75.72;100421.66;5076924;28;45462;-78
2021/11/04 06:07:10;;;;;;;;;1.00;1.00;;;;;7.47;75.34;100414.75;5080772;28;45375;-78
2021/11/04 06:09:35;;;;;;;;;1.75;1.75;;;;;7.47;75.50;100406.09;5081254;28;45642;-78
2021/11/04 06:12:01;;;;;;;;;2.00;1.00;;;;;7.46;74.93;100404.38;5084178;28;45377;-80
2021/11/04 06:14:26;;;;;;;;;1.50;1.50;;;;;7.56;75.47;100426.09;5081944;28;45314;-78
2021/11/04 06:16:52;;;;;;;;;1.00;1.00;;;;;7.56;75.19;100426.97;5061885;28;45349;-79
2021/11/04 06:19:21;;;;;;;;;0.75;0.75;;;;;7.55;75.80;100430.44;5081851;28;45991;-79
2021/11/04 06:21:46;;;;;;;;;2.00;0.50;;;;;7.60;76.10;100430.50;5084442;28;45377;-79
2021/11/04 06:24:12;;;;;;;;;0.50;0.50;;;;;7.65;75.79;100446.09;5085148;28;45291;-79
2021/11/04 06:26:37;;;;;;;;;1.25;0.50;;;;;7.69;76.00;100438.41;5063567;28;45464;-79
2021/11/04 06:29:04;;;;;;;;;3.00;0.00;;;;;7.69;75.76;100427.19;5065182;28;47285;-79
2021/11/04 06:31:29;;;;;;;;;1.00;1.00;;;;;7.70;75.78;100436.69;5064858;28;45379;-79
2021/11/04 06:33:54;;;;;;;;;0.00;0.00;;;;;7.76;75.86;100441.97;5078390;28;45335;-79
2021/11/04 06:36:20;;;;;;;;;0.25;0.25;;;;;7.73;75.68;100439.34;5066804;28;45505;-79
2021/11/04 06:38:45;;;;;;;;;0.00;0.00;;;;;7.81;76.38;100447.25;5084845;28;45372;-78
2021/11/04 06:41:10;;;;;;;;;1.50;1.00;;;;;7.78;75.98;100445.44;5084972;28;45367;-78
2021/11/04 06:43:36;;;;;;;;;0.00;0.00;;;;;7.82;75.45;100446.38;5085233;28;45326;-78
2021/11/04 06:46:02;;;;;;;;;3.50;1.25;;;;;7.87;76.03;100462.84;5084866;28;45587;-78
2021/11/04 06:48:42;;;;;;;;;0.25;0.25;;;;;7.85;75.20;100462.84;5084434;28;45523;-77
2021/11/04 06:51:09;;;;;;;;;1.25;1.25;;;;;7.86;76.14;100462.00;5083993;28;45439;-78
2021/11/04 06:53:41;;;;;;;;;1.00;1.00;;;;;7.88;75.26;100467.22;5084657;28;45221;-79
2021/11/04 06:56:07;;;;;;;;;1.00;1.00;;;;;7.82;75.40;100467.13;5085252;28;45310;-79
2021/11/04 06:58:34;;;;;;;;;0.00;0.00;;;;;7.46;76.18;100428.56;5084288;28;46590;-78
2021/11/04 07:01:06;;;;;;;;;1.50;1.50;;;;;7.67;75.71;100455.66;5084181;28;45430;-78
2021/11/04 07:03:41;;;;;;;;;0.75;0.75;;;;;7.76;76.07;100474.78;5079851;28;45347;-78
2021/11/04 07:06:08;;;;;;;;;1.00;1.00;;;;;7.73;76.19;100467.84;5083724;27;45440;-78
2021/11/04 07:08:41;;;;;;;;;0.75;0.75;;;;;7.73;76.37;100468.72;5104187;27;46991;-77
2021/11/04 07:11:07;;;;;;;;;0.00;0.00;;;;;7.77;76.76;100469.63;5094013;27;45269;-77
2021/11/04 07:13:33;;;;;;;;;2.00;0.75;;;;;7.82;76.08;100472.28;5084081;28;45481;-78
2021/11/04 07:16:00;;;;;;;;;1.00;1.00;;;;;7.75;76.07;100471.31;5085146;28;45523;-79
2021/11/04 07:18:27;;;;;;;;;1.50;1.00;;;;;7.90;75.87;100495.75;5084277;28;45455;-80
2021/11/04 07:21:34;;;;;;;;;5.25;1.00;;;;;7.92;76.55;100492.31;5087196;28;45325;-80
2021/11/04 07:24:02;;;;;;;;;1.00;1.00;;;;;7.87;76.82;100470.63;5082537;28;45449;-80
2021/11/04 07:26:40;;;;;;;;;2.00;0.50;;;;;8.10;76.42;100509.00;5084294;28;45288;-80
2021/11/04 07:29:08;;;;;;;;;1.00;1.00;;;;;8.14;76.46;100505.63;5065206;28;48142;-80
2021/11/04 07:31:40;;;;;;;;;1.00;0.00;;;;;7.99;76.08;100482.91;5081913;28;46109;-80
2021/11/04 07:34:11;;;;;;;;;0.25;0.25;;;;;7.94;75.74;100475.09;5079439;28;45591;-80
2021/11/04 07:36:39;;;;;;;;;1.00;1.00;;;;;8.14;75.58;100509.94;5084816;28;45265;-80
2021/11/04 07:39:07;;;;;;;;;2.25;1.00;;;;;7.99;76.73;100495.88;5083905;28;46532;-80
2021/11/04 07:41:34;;;;;;;;;0.00;0.00;;;;;8.05;76.15;100502.88;5083946;28;45358;-78
2021/11/04 07:44:01;;;;;;;;;3.00;0.00;;;;;8.21;76.29;100535.97;5083440;28;45446;-79
2021/11/04 07:46:28;;;;;;;;;1.00;1.00;;;;;8.25;76.51;100547.28;5083957;28;45509;-79
2021/11/04 07:48:53;;;;;;;;;1.25;1.00;;;;;8.29;76.01;100543.00;5083477;28;46460;-79
2021/11/04 07:51:19;;;;;;;;;1.00;0.00;;;;;8.21;76.56;100527.34;5083945;28;45190;-80
2021/11/04 07:53:44;;;;;;;;;0.50;0.25;;;;;8.18;76.22;100519.50;5083941;28;45243;-80
2021/11/04 07:56:11;;;;;;;;;0.25;0.25;;;;;8.30;76.14;100545.59;5083857;28;45253;-80
2021/11/04 07:58:37;;;;;;;;;1.00;1.00;;;;;8.09;75.41;100515.91;5074694;28;45444;-79
2021/11/04 08:01:03;;;;;;;;;0.00;0.00;;;;;8.30;75.73;100555.13;5063766;28;45389;-79
2021/11/04 08:03:28;;;;;;;;;1.00;1.00;;;;;8.36;75.88;100547.41;5074685;28;45473;-80
2021/11/04 08:05:54;;;;;;;;;1.00;1.00;;;;;8.44;75.64;100557.91;5081524;28;45477;-80
2021/11/04 08:08:19;;;;;;;;;1.75;1.50;;;;;8.47;76.03;100564.03;5082037;27;45322;-78
2021/11/04 08:10:45;;;;;;;;;0.75;0.75;;;;;8.51;76.11;100558.88;5064873;28;45326;-78
2021/11/04 08:13:13;;;;;;;;;0.75;0.75;;;;;8.66;76.09;100568.63;5083877;28;45694;-78
2021/11/04 08:15:40;;;;;;;;;0.75;0.75;;;;;8.69;75.99;100566.06;5084126;28;45203;-79
2021/11/04 08:18:08;;;;;;;;;1.50;1.50;;;;;8.69;75.77;100572.16;5082629;28;46863;-79
2021/11/04 08:20:33;;;;;;;;;0.00;0.00;;;;;8.66;75.71;100569.50;5081057;28;46290;-79
2021/11/04 08:22:59;;;;;;;;;1.00;1.00;;;;;8.59;75.34;100562.47;5083491;28;45271;-79
2021/11/04 08:25:25;;;;;;;;;0.00;0.00;;;;;8.61;75.61;100564.25;5065346;28;45328;-80
2021/11/04 08:27:51;;;;;;;;;2.00;0.00;;;;;8.81;75.61;100589.59;5065029;28;46119;-80
2021/11/04 08:30:17;;;;;;;;;0.00;0.00;;;;;8.85;75.55;100580.16;5081957;28;45346;-79
2021/11/04 08:32:45;;;;;;;;;0.50;0.50;;;;;8.90;75.24;100590.56;5081881;28;45401;-79
2021/11/04 08:35:11;;;;;;;;;0.00;0.00;;;;;8.81;75.49;100584.41;5083728;28;45261;-79
2021/11/04 08:37:36;;;;;;;;;0.75;0.75;;;;;8.78;75.03;100584.38;5083285;28;45522;-79
2021/11/04 08:40:04;;;;;;;;;3.00;1.00;;;;;8.86;75.46;100600.06;5081228;28;45341;-79
2021/11/04 08:42:29;;;;;;;;;0.00;0.00;;;;;8.72;75.45;100582.56;5071970;28;45375;-79
2021/11/04 08:44:55;;;;;;;;;0.00;0.00;;;;;8.91;75.09;100590.59;5065627;28;45315;-79
2021/11/04 08:47:21;;;;;;;;;1.00;1.00;;;;;8.85;74.92;100577.56;5083731;28;46053;-79
2021/11/04 08:49:47;;;;;;;;;1.00;1.00;;;;;8.94;74.63;100590.63;5083362;28;45302;-79
2021/11/04 08:52:13;;;;;;;;;0.00;0.00;;;;;9.10;75.26;100612.47;5064214;28;45773;-79
2021/11/04 08:54:40;;;;;;;;;0.75;0.00;;;;;9.13;74.55;100617.72;5082747;28;45170;-79
2021/11/04 08:57:07;;;;;;;;;0.00;0.00;;;;;9.12;74.90;100610.78;5082547;28;45243;-79
2021/11/04 08:59:34;;;;;;;;;1.00;0.75;;;;;9.22;74.59;100616.94;5064317;28;45363;-79
2021/11/04 09:02:00;;;;;;;;;0.00;0.00;;;;;9.22;74.29;100611.75;5082498;28;45328;-79
2021/11/04 09:04:27;;;;;;;;;0.00;0.00;;;;;9.30;74.12;100610.97;5082585;28;45450;-79
2021/11/04 09:06:53;;;;;;;;;0.00;0.00;;;;;9.35;73.86;100586.78;5082960;28;45286;-79
2021/11/04 09:09:19;;;;;;;;;1.00;0.00;;;;;9.68;73.61;100635.66;5083891;28;45323;-79
2021/11/04 09:11:45;;;;;;;;;0.00;0.00;;;;;9.71;73.34;100627.91;5084304;28;45382;-78
2021/11/04 09:14:12;;;;;;;;;0.75;0.25;;;;;9.67;73.06;100632.19;5083271;28;45438;-79
2021/11/04 09:16:38;;;;;;;;;1.00;0.00;;;;;9.51;72.98;100612.97;5082812;28;45398;-78
2021/11/04 09:19:04;;;;;;;;;0.25;0.00;;;;;9.39;73.17;100616.28;5082823;28;45362;-79
2021/11/04 09:21:30;;;;;;;;;1.00;0.00;;;;;9.35;73.04;100614.50;5082948;28;45259;-78
2021/11/04 09:23:56;;;;;;;;;2.00;0.00;;;;;9.53;72.75;100652.84;5082861;28;45286;-78
2021/11/04 09:26:21;;;;;;;;;0.25;0.25;;;;;9.52;72.88;100650.22;5081113;28;45670;-78
2021/11/04 09:28:47;;;;;;;;;2.00;0.00;;;;;9.40;72.91;100628.41;5082205;28;45283;-79
2021/11/04 09:31:12;;;;;;;;;0.75;0.75;;;;;9.50;72.96;100643.25;5080990;28;45351;-78
2021/11/04 09:33:38;;;;;;;;;0.00;0.00;;;;;9.50;72.98;100648.47;5082881;28;45229;-79
2021/11/04 09:36:04;;;;;;;;;0.00;0.00;;;;;9.28;73.00;100620.50;5082632;28;45374;-78
2021/11/04 09:38:30;;;;;;;;;1.00;1.00;;;;;9.45;72.84;100659.66;5083714;28;45388;-79
2021/11/04 09:40:55;;;;;;;;;1.00;1.00;;;;;9.38;72.81;100659.56;5082594;28;45359;-80
2021/11/04 09:43:21;;;;;;;;;0.00;0.00;;;;;9.24;72.67;100633.44;5083968;28;45569;-80
2021/11/04 09:45:47;;;;;;;;;0.00;0.00;;;;;9.41;72.17;100652.69;5084059;28;47503;-80
2021/11/04 09:48:12;;;;;;;;;0.00;0.00;;;;;9.21;71.97;100620.41;5067282;28;45310;-81
2021/11/04 09:50:38;;;;;;;;;0.00;0.00;;;;;9.36;71.84;100643.13;5081808;28;45299;-80
2021/11/04 09:53:06;;;;;;;;;0.00;0.00;;;;;9.27;71.41;100631.72;5082213;28;45406;-80
2021/11/04 09:55:34;;;;;;;;;0.25;0.25;;;;;9.30;71.76;100645.63;5080741;28;45468;-79
2021/11/04 09:58:02;;;;;;;;;0.00;0.00;;;;;9.48;71.65;100677.88;5081956;28;46386;-80
2021/11/04 10:00:41;;;;;;;;;0.00;0.00;;;;;9.43;71.51;100662.22;5064654;28;45379;-78
2021/11/04 10:03:11;;;;;;;;;0.00;0.00;;;;;9.39;71.02;100663.06;5063859;28;45293;-78
2021/11/04 10:05:48;;;;;;;;;0.00;0.00;;;;;9.23;71.13;100636.03;5083755;28;46097;-79
2021/11/04 10:08:34;;;;;;;;;0.00;0.00;;;;;9.52;71.16;100658.03;5081664;28;45241;-79
2021/11/04 10:11:07;;;;;;;;;0.00;0.00;;;;;9.57;70.65;100670.22;5064996;28;45363;-79
2021/11/04 10:13:33;;;;;;;;;1.00;0.00;;;;;9.71;70.85;100690.28;5082896;28;45281;-80
2021/11/04 10:15:59;;;;;;;;;0.00;0.00;;;;;9.67;70.95;100698.88;5064192;28;46363;-80
2021/11/04 10:18:25;;;;;;;;;0.00;0.00;;;;;9.31;70.84;100651.72;5064224;28;45305;-79
2021/11/04 10:21:05;;;;;;;;;0.00;0.00;;;;;9.43;70.56;100693.41;5080969;28;45252;-78
2021/11/04 10:23:39;;;;;;;;;0.00;0.00;;;;;9.61;70.07;100699.69;5081258;28;45515;-79
2021/11/04 10:26:12;;;;;;;;;0.00;0.00;;;;;9.69;69.74;100695.47;5082149;28;46222;-78
2021/11/04 10:28:39;;;;;;;;;0.00;0.00;;;;;9.75;69.57;100699.88;5064108;28;45601;-78
2021/11/04 10:31:13;;;;;;;;;1.00;0.00;;;;;9.85;69.59;100686.13;5081011;28;45330;-80
2021/11/04 10:33:45;;;;;;;;;0.00;0.00;;;;;9.92;68.83;100687.03;5063872;28;45467;-79
2021/11/04 10:36:18;;;;;;;;;0.00;0.00;;;;;9.94;68.66;100700.06;5082140;28;45367;-78
2021/11/04 10:38:50;;;;;;;;;0.00;0.00;;;;;9.87;68.41;100697.38;5081478;28;45310;-77
2021/11/04 10:41:19;;;;;;;;;0.00;0.00;;;;;10.06;68.35;100709.72;5065533;28;45315;-78
2021/11/04 10:43:46;;;;;;;;;0.00;0.00;;;;;10.14;68.11;100698.53;5083306;28;45559;-78
2021/11/04 10:46:13;;;;;;;;;0.00;0.00;;;;;10.26;68.45;100715.09;5080644;28;47030;-78
2021/11/04 10:48:45;;;;;;;;;0.00;0.00;;;;;10.28;67.74;100697.78;5080755;28;45301;-79
2021/11/04 10:51:15;;;;;;;;;0.00;0.00;;;;;10.28;67.61;100700.41;5082682;28;45593;-79
2021/11/04 10:53:41;;;;;;;;;0.00;0.00;;;;;10.27;67.01;100683.06;5081964;28;45153;-79
2021/11/04 10:56:14;;;;;;;;;0.00;0.00;;;;;10.43;66.67;100704.88;5081237;28;46386;-78
2021/11/04 10:58:40;;;;;;;;;0.00;0.00;;;;;10.47;66.43;100701.47;5081796;28;45289;-78
2021/11/04 11:01:05;;;;;;;;;0.00;0.00;;;;;10.47;65.13;100711.00;5082021;28;45231;-78
2021/11/04 11:03:32;;;;;;;;;0.00;0.00;;;;;10.32;65.61;100706.53;5065009;28;45703;-78
2021/11/04 11:06:07;;;;;;;;;0.00;0.00;;;;;10.16;65.78;100688.16;5085056;28;45411;-77
2021/11/04 11:08:33;;;;;;;;;0.00;0.00;;;;;10.07;66.80;100686.31;5067264;28;45382;-79
2021/11/04 11:10:58;;;;;;;;;0.00;0.00;;;;;10.20;66.75;100728.09;5085141;28;45310;-79
2021/11/04 11:13:24;;;;;;;;;0.00;0.00;;;;;10.07;66.88;100720.13;5085471;28;45335;-79
2021/11/04 11:15:54;;;;;;;;;0.00;0.00;;;;;9.93;67.07;100700.91;5084584;28;45678;-78
2021/11/04 11:18:22;;;;;;;;;0.00;0.00;;;;;9.95;67.21;100699.22;5084789;28;45335;-79
2021/11/04 11:20:49;;;;;;;;;0.00;0.00;;;;;10.02;66.86;100722.69;5066849;28;45386;-79
2021/11/04 11:23:20;;;;;;;;;0.00;0.00;;;;;9.97;67.21;100719.19;5085386;28;45475;-80
2021/11/04 11:25:55;;;;;;;;;0.75;0.75;;;;;10.01;67.47;100712.28;5065872;28;46182;-79
2021/11/04 11:28:22;;;;;;;;;0.00;0.00;;;;;10.15;67.02;100735.84;5084946;28;45241;-79
2021/11/04 11:31:09;;;;;;;;;0.75;0.00;;;;;10.20;66.17;100734.13;5084667;28;45362;-79
2021/11/04 11:33:43;;;;;;;;;0.00;0.00;;;;;10.16;66.21;100732.38;5059448;28;45329;-80